createdAt,value
2023-08-08T00:02:22.143Z,101536.66
2023-08-08T00:05:10.877Z,101530.94
2023-08-08T00:07:59.095Z,101526.84
2023-08-08T00:10:47.194Z,101518.38
2023-08-08T00:13:35.361Z,101526.19
2023-08-08T00:16:23.543Z,101526.88
2023-08-08T00:19:14.747Z,101520.25
2023-08-08T00:22:02.905Z,101524.19
2023-08-08T00:24:51.076Z,101521.97
2023-08-08T00:27:43.431Z,101516.06
2023-08-08T00:30:33.239Z,101517.41
2023-08-08T00:33:21.404Z,101519.97
2023-08-08T00:36:09.732Z,101518.63
2023-08-08T00:38:57.887Z,101514.88
2023-08-08T00:41:46.134Z,101515.06
2023-08-08T00:44:33.953Z,101511.81
2023-08-08T00:47:22.165Z,101504.88
2023-08-08T00:50:12.639Z,101505.72
2023-08-08T00:53:02.305Z,101500.28
2023-08-08T00:55:50.780Z,101513.00
2023-08-08T00:58:39.007Z,101501.13
2023-08-08T01:01:26.804Z,101494.69
2023-08-08T01:04:15.578Z,101496.19
2023-08-08T01:07:12.708Z,101498.78
2023-08-08T01:10:08.571Z,101483.16
2023-08-08T01:13:05.950Z,101491.31
2023-08-08T01:15:57.641Z,101500.97
2023-08-08T01:18:50.266Z,101501.81
2023-08-08T01:21:42.408Z,101499.94
2023-08-08T01:24:34.238Z,101501.66
2023-08-08T01:27:22.598Z,101498.94
2023-08-08T01:30:12.129Z,101493.69
2023-08-08T01:33:00.225Z,101495.53
2023-08-08T01:36:04.879Z,101493.84
2023-08-08T01:38:56.859Z,101495.88
2023-08-08T01:41:48.451Z,101487.91
2023-08-08T01:44:37.345Z,101491.78
2023-08-08T01:47:25.545Z,101489.44
2023-08-08T01:50:13.615Z,101477.72
2023-08-08T01:53:03.040Z,101488.75
2023-08-08T01:55:53.609Z,101481.63
2023-08-08T01:58:41.670Z,101467.03
2023-08-08T02:01:29.839Z,101474.16
2023-08-08T02:03:58.030Z,101459.75
2023-08-08T02:06:46.193Z,101478.56
2023-08-08T02:09:34.337Z,101468.75
2023-08-08T02:12:22.448Z,101469.59
2023-08-08T02:15:10.940Z,101465.34
2023-08-08T02:17:59.078Z,101459.22
2023-08-08T02:20:52.832Z,101462.28
2023-08-08T02:23:41.009Z,101455.16
2023-08-08T02:26:28.743Z,101464.13
2023-08-08T02:29:16.910Z,101454.13
2023-08-08T02:32:05.433Z,101459.06
2023-08-08T02:34:53.526Z,101455.69
2023-08-08T02:37:41.722Z,101450.38
2023-08-08T02:40:29.826Z,101454.78
2023-08-08T02:43:17.965Z,101445.81
2023-08-08T02:46:06.137Z,101448.69
2023-08-08T02:48:54.279Z,101454.28
2023-08-08T02:51:42.391Z,101453.97
2023-08-08T02:54:30.598Z,101450.72
2023-08-08T02:57:19.149Z,101450.03
2023-08-08T03:00:09.464Z,101454.44
2023-08-08T03:02:57.980Z,101450.72
2023-08-08T03:05:47.998Z,101444.44
2023-08-08T03:08:36.244Z,101442.75
2023-08-08T03:11:24.081Z,101437.84
2023-08-08T03:14:12.370Z,101442.72
2023-08-08T03:17:01.523Z,101442.91
2023-08-08T03:19:48.294Z,101442.06
2023-08-08T03:22:36.625Z,101443.09
2023-08-08T03:25:24.276Z,101446.81
2023-08-08T03:28:12.537Z,101440.53
2023-08-08T03:31:00.289Z,101439.03
2023-08-08T03:33:49.209Z,101448.00
2023-08-08T03:36:37.233Z,101440.84
2023-08-08T03:39:25.576Z,101435.44
2023-08-08T03:42:13.659Z,101432.88
2023-08-08T03:45:01.841Z,101430.16
2023-08-08T03:47:49.967Z,101431.03
2023-08-08T03:50:41.084Z,101429.31
2023-08-08T03:53:29.207Z,101437.47
2023-08-08T03:56:17.423Z,101428.81
2023-08-08T03:59:05.553Z,101427.31
2023-08-08T04:01:53.715Z,101427.31
2023-08-08T04:04:41.916Z,101425.44
2023-08-08T04:07:30.056Z,101416.44
2023-08-08T04:10:18.333Z,101419.44
2023-08-08T04:13:06.198Z,101413.34
2023-08-08T04:15:54.407Z,101415.38
2023-08-08T04:18:42.526Z,101419.28
2023-08-08T04:21:33.412Z,101412.31
2023-08-08T04:24:21.530Z,101413.84
2023-08-08T04:27:09.736Z,101407.38
2023-08-08T04:29:58.003Z,101414.16
2023-08-08T04:32:46.058Z,101410.03
2023-08-08T04:35:34.181Z,101415.47
2023-08-08T04:38:22.417Z,101413.44
2023-08-08T04:41:10.300Z,101415.84
2023-08-08T04:43:58.447Z,101421.75
2023-08-08T04:46:46.606Z,101416.88
2023-08-08T04:49:34.706Z,101408.25
2023-08-08T04:52:22.903Z,101417.59
2023-08-08T04:55:12.583Z,101403.69
2023-08-08T04:58:00.918Z,101409.78
2023-08-08T05:00:48.689Z,101404.19
2023-08-08T05:03:36.968Z,101404.19
2023-08-08T05:06:25.061Z,101401.47
2023-08-08T05:09:14.467Z,101407.75
2023-08-08T05:12:02.864Z,101408.47
2023-08-08T05:14:50.817Z,101403.22
2023-08-08T05:17:39.179Z,101401.38
2023-08-08T05:20:27.015Z,101411.91
2023-08-08T05:23:15.272Z,101410.38
2023-08-08T05:26:03.046Z,101412.41
2023-08-08T05:28:44.046Z,101412.09
2023-08-08T05:31:31.484Z,101413.09
2023-08-08T05:34:19.627Z,101417.16
2023-08-08T05:37:10.694Z,101419.47
2023-08-08T05:39:40.836Z,101415.41
2023-08-08T05:42:20.710Z,101421.59
2023-08-08T05:45:00.417Z,101414.19
2023-08-08T05:47:40.014Z,101421.50
2023-08-08T05:50:20.691Z,101417.06
2023-08-08T05:53:00.342Z,101415.03
2023-08-08T05:55:42.980Z,101421.59
2023-08-08T05:58:23.503Z,101419.63
2023-08-08T06:01:03.070Z,101416.91
2023-08-08T06:03:43.749Z,101420.56
2023-08-08T06:06:23.338Z,101424.22
2023-08-08T06:09:03.182Z,101418.81
2023-08-08T06:11:42.719Z,101419.63
2023-08-08T06:14:20.614Z,101422.53
2023-08-08T06:16:59.800Z,101415.28
2023-08-08T06:19:38.134Z,101419.19
2023-08-08T06:22:18.048Z,101422.09
2023-08-08T06:24:57.728Z,101427.19
2023-08-08T06:27:39.667Z,101428.78
2023-08-08T06:30:19.430Z,101434.03
2023-08-08T06:32:58.953Z,101440.91
2023-08-08T06:35:41.692Z,101435.59
2023-08-08T06:38:21.339Z,101441.97
2023-08-08T06:41:01.374Z,101436.78
2023-08-08T06:43:42.052Z,101440.66
2023-08-08T06:46:21.959Z,101441.25
2023-08-08T06:49:02.598Z,101433.56
2023-08-08T06:51:42.053Z,101433.75
2023-08-08T06:54:21.767Z,101440.97
2023-08-08T06:57:02.663Z,101438.94
2023-08-08T06:59:42.875Z,101442.72
2023-08-08T07:02:24.909Z,101448.72
2023-08-08T07:04:54.062Z,101444.19
2023-08-08T07:07:34.635Z,101447.16
2023-08-08T07:10:14.521Z,101438.91
2023-08-08T07:12:54.164Z,101443.19
2023-08-08T07:15:33.970Z,101438.09
2023-08-08T07:18:13.661Z,101433.16
2023-08-08T07:21:02.897Z,101440.66
2023-08-08T07:23:42.554Z,101427.69
2023-08-08T07:26:23.547Z,101432.03
2023-08-08T07:29:07.251Z,101425.66
2023-08-08T07:31:46.996Z,101427.38
2023-08-08T07:34:26.511Z,101426.44
2023-08-08T07:37:06.372Z,101429.47
2023-08-08T07:39:55.308Z,101419.75
2023-08-08T07:42:44.581Z,101418.53
2023-08-08T07:45:32.763Z,101414.19
2023-08-08T07:48:13.928Z,101418.69
2023-08-08T07:50:53.457Z,101411.19
2023-08-08T07:53:35.051Z,101408.13
2023-08-08T07:56:14.695Z,101397.81
2023-08-08T07:58:57.364Z,101413.34
2023-08-08T08:01:37.102Z,101419.00
2023-08-08T08:04:24.039Z,101406.84
2023-08-08T08:07:03.926Z,101409.31
2023-08-08T08:09:43.948Z,101410.03
2023-08-08T08:12:23.577Z,101409.59
2023-08-08T08:15:03.703Z,101412.13
2023-08-08T08:17:43.571Z,101408.38
2023-08-08T08:20:35.376Z,101403.41
2023-08-08T08:23:15.688Z,101398.16
2023-08-08T08:25:55.303Z,101410.19
2023-08-08T08:28:35.075Z,101403.88
2023-08-08T08:31:24.482Z,101411.78
2023-08-08T08:34:12.577Z,101412.25
2023-08-08T08:36:59.972Z,101403.78
2023-08-08T08:39:48.448Z,101411.19
2023-08-08T08:42:37.552Z,101405.53
2023-08-08T08:45:24.835Z,101414.75
2023-08-08T08:48:04.853Z,101410.78
2023-08-08T08:50:54.822Z,101404.72
2023-08-08T08:53:36.283Z,101409.38
2023-08-08T08:56:20.160Z,101405.97
2023-08-08T08:58:59.987Z,101421.09
2023-08-08T09:01:39.903Z,101415.63
2023-08-08T09:04:23.298Z,101420.69
2023-08-08T09:07:03.752Z,101422.13
2023-08-08T09:09:46.121Z,101417.06
2023-08-08T09:12:26.308Z,101428.25
2023-08-08T09:15:07.200Z,101415.47
2023-08-08T09:17:49.307Z,101420.75
2023-08-08T09:20:31.926Z,101425.63
2023-08-08T09:23:12.241Z,101415.94
2023-08-08T09:25:56.690Z,101423.38
2023-08-08T09:28:39.509Z,101413.69
2023-08-08T09:31:19.679Z,101406.31
2023-08-08T09:34:01.709Z,101404.41
2023-08-08T09:36:42.605Z,101415.94
2023-08-08T09:39:22.825Z,101420.13
2023-08-08T09:42:05.481Z,101410.41
2023-08-08T09:44:45.583Z,101412.84
2023-08-08T09:47:25.876Z,101408.00
2023-08-08T09:50:12.685Z,101410.09
2023-08-08T09:52:57.357Z,101425.28
2023-08-08T09:55:37.772Z,101419.59
2023-08-08T09:58:18.728Z,101415.38
2023-08-08T10:00:58.356Z,101417.22
2023-08-08T10:03:39.405Z,101432.25
2023-08-08T10:06:29.902Z,101432.38
2023-08-08T10:09:10.204Z,101418.13
2023-08-08T10:11:51.472Z,101424.59
2023-08-08T10:14:38.183Z,101437.00
2023-08-08T10:17:19.906Z,101428.59
2023-08-08T10:20:01.127Z,101420.63
2023-08-08T10:22:48.324Z,101421.28
2023-08-08T10:25:32.554Z,101435.19
2023-08-08T10:30:59.921Z,101439.84
2023-08-08T10:33:45.417Z,101443.22
2023-08-08T10:36:25.432Z,101437.28
2023-08-08T10:39:05.228Z,101433.91
2023-08-08T10:41:53.621Z,101440.63
2023-08-08T10:44:43.799Z,101442.34
2023-08-08T10:47:38.036Z,101441.84
2023-08-08T10:50:26.226Z,101447.19
2023-08-08T10:53:14.383Z,101439.00
2023-08-08T10:56:07.740Z,101431.81
2023-08-08T10:58:53.281Z,101432.25
2023-08-08T11:01:33.250Z,101424.22
2023-08-08T11:04:14.861Z,101431.56
2023-08-08T11:06:57.713Z,101424.41
2023-08-08T11:09:42.778Z,101429.66
2023-08-08T11:12:28.015Z,101435.78
2023-08-08T11:15:08.414Z,101432.13
2023-08-08T11:17:47.823Z,101438.28
2023-08-08T11:20:37.954Z,101436.38
2023-08-08T11:23:26.097Z,101429.91
2023-08-08T11:29:01.054Z,101440.44
2023-08-08T11:31:44.721Z,101437.94
2023-08-08T11:34:35.308Z,101425.09
2023-08-08T11:37:16.417Z,101428.66
2023-08-08T11:39:59.092Z,101431.69
2023-08-08T11:42:48.016Z,101423.88
2023-08-08T11:45:37.110Z,101416.41
2023-08-08T11:48:26.998Z,101412.56
2023-08-08T11:51:11.314Z,101411.03
2023-08-08T11:54:03.462Z,101408.25
2023-08-08T11:56:51.806Z,101403.25
2023-08-08T11:59:37.474Z,101410.28
2023-08-08T12:02:28.802Z,101409.81
2023-08-08T12:05:10.846Z,101404.88
2023-08-08T12:07:43.335Z,101408.69
2023-08-08T12:10:32.036Z,101413.84
2023-08-08T12:13:28.118Z,101417.72
2023-08-08T12:15:56.966Z,101409.59
2023-08-08T12:18:40.594Z,101403.44
2023-08-08T12:21:20.269Z,101407.25
2023-08-08T12:23:59.992Z,101415.34
2023-08-08T12:26:42.416Z,101391.91
2023-08-08T12:29:22.281Z,101398.59
2023-08-08T12:32:03.930Z,101403.00
2023-08-08T12:34:43.841Z,101408.25
2023-08-08T12:37:24.936Z,101407.78
2023-08-08T12:40:06.007Z,101410.22
2023-08-08T12:42:44.546Z,101410.81
2023-08-08T12:45:25.443Z,101400.69
2023-08-08T12:48:05.569Z,101414.88
2023-08-08T12:50:45.161Z,101406.25
2023-08-08T12:53:24.946Z,101408.16
2023-08-08T12:56:04.716Z,101402.53
2023-08-08T12:58:52.145Z,101403.75
2023-08-08T13:01:21.137Z,101407.13
2023-08-08T13:04:18.234Z,101402.41
2023-08-08T13:06:45.597Z,101402.56
2023-08-08T13:09:16.064Z,101396.94
2023-08-08T13:12:34.870Z,101422.75
2023-08-08T13:15:21.708Z,101405.16
2023-08-08T13:18:01.502Z,101417.56
2023-08-08T13:20:42.083Z,101413.97
2023-08-08T13:23:21.664Z,101399.97
2023-08-08T13:26:02.094Z,101393.13
2023-08-08T13:28:44.460Z,101409.50
2023-08-08T13:31:24.103Z,101403.81
2023-08-08T13:34:03.797Z,101426.78
2023-08-08T13:36:44.375Z,101408.34
2023-08-08T13:42:23.945Z,101423.53
2023-08-08T13:45:13.644Z,101426.69
2023-08-08T13:47:53.312Z,101438.28
2023-08-08T13:50:32.954Z,101429.78
2023-08-08T13:53:19.200Z,101429.44
2023-08-08T13:56:06.022Z,101442.72
2023-08-08T13:58:47.423Z,101436.81
2023-08-08T14:01:27.038Z,101448.53
2023-08-08T14:04:08.310Z,101435.47
2023-08-08T14:06:49.441Z,101435.09
2023-08-08T14:09:29.161Z,101433.81
2023-08-08T14:12:14.829Z,101434.50
2023-08-08T14:14:54.616Z,101444.44
2023-08-08T14:17:38.606Z,101436.00
2023-08-08T14:20:23.546Z,101445.72
2023-08-08T14:23:03.543Z,101442.25
2023-08-08T14:26:08.324Z,101441.31
2023-08-08T14:28:47.910Z,101434.53
2023-08-08T14:31:27.608Z,101435.56
2023-08-08T14:34:07.373Z,101432.81
2023-08-08T14:36:56.731Z,101427.56
2023-08-08T14:39:25.903Z,101421.69
2023-08-08T14:42:06.169Z,101422.63
2023-08-08T14:44:48.493Z,101423.75
2023-08-08T14:47:28.277Z,101405.09
2023-08-08T14:50:15.155Z,101421.66
2023-08-08T14:52:55.096Z,101423.50
2023-08-08T14:55:34.978Z,101420.59
2023-08-08T14:58:15.071Z,101417.94
2023-08-08T15:00:56.152Z,101424.63
2023-08-08T15:03:36.187Z,101419.31
2023-08-08T15:06:16.001Z,101431.59
2023-08-08T15:09:05.113Z,101429.50
2023-08-08T15:11:44.063Z,101427.69
2023-08-08T15:14:23.886Z,101434.38
2023-08-08T15:17:03.788Z,101431.63
2023-08-08T15:19:49.253Z,101428.44
2023-08-08T15:22:29.207Z,101432.59
2023-08-08T15:25:15.041Z,101436.81
2023-08-08T15:27:54.876Z,101442.09
2023-08-08T15:30:39.412Z,101436.31
2023-08-08T15:33:19.846Z,101436.38
2023-08-08T15:35:59.741Z,101440.31
2023-08-08T15:38:39.580Z,101438.03
2023-08-08T15:41:20.807Z,101431.19
2023-08-08T15:44:00.744Z,101431.38
2023-08-08T15:46:43.617Z,101433.50
2023-08-08T15:49:23.553Z,101436.69
2023-08-08T15:52:03.364Z,101435.88
2023-08-08T15:54:43.074Z,101429.75
2023-08-08T15:57:25.167Z,101417.34
2023-08-08T16:00:07.557Z,101411.09
2023-08-08T16:02:47.392Z,101422.09
2023-08-08T16:05:29.344Z,101422.06
2023-08-08T16:08:16.253Z,101427.19
2023-08-08T16:10:54.696Z,101421.09
2023-08-08T16:13:34.453Z,101426.28
2023-08-08T16:16:14.138Z,101416.53
2023-08-08T16:18:53.997Z,101420.13
2023-08-08T16:21:36.485Z,101416.97
2023-08-08T16:24:16.206Z,101417.78
2023-08-08T16:26:55.855Z,101415.69
2023-08-08T16:29:35.670Z,101408.31
2023-08-08T16:32:15.341Z,101429.53
2023-08-08T16:34:55.506Z,101419.19
2023-08-08T16:37:35.110Z,101433.53
2023-08-08T16:40:14.814Z,101422.75
2023-08-08T16:42:54.422Z,101434.97
2023-08-08T16:45:34.064Z,101430.91
2023-08-08T16:48:13.715Z,101423.13
2023-08-08T16:50:55.053Z,101423.97
2023-08-08T16:53:34.777Z,101418.44
2023-08-08T16:56:15.964Z,101416.97
2023-08-08T16:58:55.611Z,101422.19
2023-08-08T17:01:38.000Z,101421.31
2023-08-08T17:04:18.476Z,101429.88
2023-08-08T17:07:01.273Z,101424.88
2023-08-08T17:09:41.970Z,101416.13
2023-08-08T17:12:21.578Z,101432.56
2023-08-08T17:15:01.147Z,101404.81
2023-08-08T17:17:40.841Z,101396.03
2023-08-08T17:20:20.458Z,101403.88
2023-08-08T17:23:00.090Z,101414.84
2023-08-08T17:25:39.800Z,101413.72
2023-08-08T17:28:19.535Z,101422.28
2023-08-08T17:31:02.424Z,101428.00
2023-08-08T17:33:42.143Z,101434.88
2023-08-08T17:36:22.267Z,101426.38
2023-08-08T17:39:01.956Z,101429.88
2023-08-08T17:41:44.237Z,101425.63
2023-08-08T17:44:23.971Z,101431.66
2023-08-08T17:47:04.443Z,101424.59
2023-08-08T17:49:44.817Z,101420.06
2023-08-08T17:52:24.872Z,101422.06
2023-08-08T17:55:04.674Z,101423.38
2023-08-08T17:57:44.197Z,101427.19
2023-08-08T18:00:23.897Z,101431.31
2023-08-08T18:03:03.828Z,101423.69
2023-08-08T18:05:43.205Z,101423.59
2023-08-08T18:08:23.204Z,101414.97
2023-08-08T18:11:02.819Z,101410.25
2023-08-08T18:13:42.457Z,101409.59
2023-08-08T18:16:22.034Z,101408.44
2023-08-08T18:19:02.620Z,101403.88
2023-08-08T18:21:42.260Z,101410.16
2023-08-08T18:24:21.911Z,101407.09
2023-08-08T18:27:00.555Z,101405.91
2023-08-08T18:29:40.306Z,101407.22
2023-08-08T18:32:19.981Z,101402.81
2023-08-08T18:34:59.597Z,101400.28
2023-08-08T18:37:41.397Z,101402.16
2023-08-08T18:40:22.365Z,101404.50
2023-08-08T18:43:02.186Z,101400.63
2023-08-08T18:45:45.000Z,101407.81
2023-08-08T18:48:24.645Z,101399.34
2023-08-08T18:51:04.244Z,101404.00
2023-08-08T18:53:45.022Z,101408.81
2023-08-08T18:56:25.060Z,101405.13
2023-08-08T18:59:04.686Z,101401.75
2023-08-08T19:01:44.366Z,101410.94
2023-08-08T19:04:23.952Z,101399.75
2023-08-08T19:07:03.882Z,101398.38
2023-08-08T19:09:45.881Z,101392.78
2023-08-08T19:12:25.557Z,101390.97
2023-08-08T19:15:06.053Z,101402.31
2023-08-08T19:17:55.435Z,101397.56
2023-08-08T19:20:26.104Z,101407.28
2023-08-08T19:23:12.816Z,101411.50
2023-08-08T19:25:52.499Z,101410.84
2023-08-08T19:28:32.202Z,101410.16
2023-08-08T19:31:11.838Z,101398.09
2023-08-08T19:34:04.328Z,101402.22
2023-08-08T19:36:31.156Z,101401.19
2023-08-08T19:39:13.884Z,101404.91
2023-08-08T19:41:53.504Z,101412.91
2023-08-08T19:44:33.110Z,101409.34
2023-08-08T19:47:13.842Z,101395.09
2023-08-08T19:49:52.737Z,101401.38
2023-08-08T19:52:32.392Z,101394.44
2023-08-08T19:55:12.080Z,101408.00
2023-08-08T19:58:00.550Z,101387.63
2023-08-08T20:00:42.572Z,101383.75
2023-08-08T20:03:22.456Z,101393.59
2023-08-08T20:06:02.138Z,101368.31
2023-08-08T20:08:41.864Z,101370.19
2023-08-08T20:11:21.461Z,101379.19
2023-08-08T20:14:01.108Z,101370.69
2023-08-08T20:16:40.819Z,101368.50
2023-08-08T20:19:20.442Z,101383.22
2023-08-08T20:22:00.020Z,101381.72
2023-08-08T20:24:39.776Z,101374.25
2023-08-08T20:27:19.470Z,101387.81
2023-08-08T20:29:59.033Z,101381.53
2023-08-08T20:32:39.069Z,101387.97
2023-08-08T20:35:20.895Z,101368.66
2023-08-08T20:38:01.030Z,101372.91
2023-08-08T20:40:40.799Z,101377.47
2023-08-08T20:43:20.562Z,101387.31
2023-08-08T20:46:03.070Z,101395.94
2023-08-08T20:48:43.927Z,101401.91
2023-08-08T20:51:23.464Z,101398.16
2023-08-08T20:54:07.128Z,101393.09
2023-08-08T20:56:47.555Z,101392.91
2023-08-08T20:59:28.276Z,101381.53
2023-08-08T21:02:09.392Z,101379.19
2023-08-08T21:04:50.438Z,101373.06
2023-08-08T21:07:29.046Z,101365.28
2023-08-08T21:10:14.489Z,101360.16
2023-08-08T21:12:54.064Z,101356.13
2023-08-08T21:15:33.680Z,101346.47
2023-08-08T21:18:14.306Z,101350.88
2023-08-08T21:20:53.976Z,101349.50
2023-08-08T21:23:33.752Z,101352.38
2023-08-08T21:26:13.740Z,101349.34
2023-08-08T21:28:53.023Z,101352.72
2023-08-08T21:31:35.677Z,101348.16
2023-08-08T21:34:15.202Z,101330.84
2023-08-08T21:36:54.822Z,101327.31
2023-08-08T21:39:34.415Z,101334.41
2023-08-08T21:42:13.993Z,101333.75
2023-08-08T21:44:53.667Z,101338.16
2023-08-08T21:47:33.335Z,101326.94
2023-08-08T21:50:12.790Z,101337.47
2023-08-08T21:52:52.242Z,101352.72
2023-08-08T21:55:31.999Z,101364.75
2023-08-08T21:58:12.316Z,101348.81
2023-08-08T22:00:53.002Z,101354.25
2023-08-08T22:03:32.555Z,101355.25
2023-08-08T22:06:12.458Z,101353.06
2023-08-08T22:08:52.097Z,101355.78
2023-08-08T22:11:31.776Z,101365.63
2023-08-08T22:14:11.344Z,101355.94
2023-08-08T22:16:51.147Z,101359.16
2023-08-08T22:19:32.643Z,101370.88
2023-08-08T22:22:12.189Z,101367.97
2023-08-08T22:24:51.869Z,101358.81
2023-08-08T22:27:31.752Z,101357.13
2023-08-08T22:30:12.580Z,101362.38
2023-08-08T22:32:52.246Z,101363.75
2023-08-08T22:35:31.896Z,101376.47
2023-08-08T22:38:11.565Z,101386.97
2023-08-08T22:40:51.141Z,101372.03
2023-08-08T22:43:30.813Z,101369.00
2023-08-08T22:46:10.448Z,101369.69
2023-08-08T22:48:51.627Z,101372.22
2023-08-08T22:51:31.529Z,101362.41
2023-08-08T22:54:13.368Z,101347.13
2023-08-08T22:56:53.081Z,101352.03
2023-08-08T22:59:32.613Z,101361.19
2023-08-08T23:02:13.020Z,101346.13
2023-08-08T23:04:52.636Z,101351.53
2023-08-08T23:07:32.171Z,101360.53
2023-08-08T23:10:11.851Z,101349.50
2023-08-08T23:12:51.553Z,101343.22
2023-08-08T23:15:31.172Z,101353.22
2023-08-08T23:18:10.412Z,101342.69
2023-08-08T23:20:53.075Z,101342.88
2023-08-08T23:23:32.713Z,101344.59
2023-08-08T23:26:13.009Z,101356.13
2023-08-08T23:28:52.700Z,101355.63
2023-08-08T23:31:33.914Z,101357.50
2023-08-08T23:34:13.626Z,101368.34
2023-08-08T23:36:53.098Z,101361.88
2023-08-08T23:39:32.717Z,101365.09
2023-08-08T23:42:12.765Z,101363.22
2023-08-08T23:44:52.445Z,101373.06
2023-08-08T23:47:33.353Z,101369.50
2023-08-08T23:50:13.036Z,101362.03
2023-08-08T23:52:52.747Z,101368.31
2023-08-08T23:55:32.299Z,101365.94
2023-08-08T23:58:12.103Z,101366.63
